sensor_id;sensor_type;location;lat;lon;timestamp;temperature;humidity
12819;DHT22;6474;53.474;9.894;2024-02-23T00:01:24;10.10;94.10
12819;DHT22;6474;53.474;9.894;2024-02-23T00:03:54;10.10;94.10
12819;DHT22;6474;53.474;9.894;2024-02-23T00:06:22;10.10;94.10
12819;DHT22;6474;53.474;9.894;2024-02-23T00:08:54;10.10;94.10
12819;DHT22;6474;53.474;9.894;2024-02-23T00:11:23;10.10;94.10
12819;DHT22;6474;53.474;9.894;2024-02-23T00:13:51;10.10;93.90
12819;DHT22;6474;53.474;9.894;2024-02-23T00:16:20;10.00;93.80
12819;DHT22;6474;53.474;9.894;2024-02-23T00:18:48;10.00;93.70
12819;DHT22;6474;53.474;9.894;2024-02-23T00:21:23;9.90;94.30
12819;DHT22;6474;53.474;9.894;2024-02-23T00:23:51;9.90;94.40
12819;DHT22;6474;53.474;9.894;2024-02-23T00:26:19;9.90;94.50
12819;DHT22;6474;53.474;9.894;2024-02-23T00:28:48;9.80;94.40
12819;DHT22;6474;53.474;9.894;2024-02-23T00:31:16;9.80;94.80
12819;DHT22;6474;53.474;9.894;2024-02-23T00:33:44;9.80;94.50
12819;DHT22;6474;53.474;9.894;2024-02-23T00:36:12;9.70;94.40
12819;DHT22;6474;53.474;9.894;2024-02-23T00:38:41;9.70;94.40
12819;DHT22;6474;53.474;9.894;2024-02-23T00:41:09;9.70;94.40
12819;DHT22;6474;53.474;9.894;2024-02-23T00:43:38;9.70;94.40
12819;DHT22;6474;53.474;9.894;2024-02-23T00:46:06;9.80;94.50
12819;DHT22;6474;53.474;9.894;2024-02-23T00:48:34;9.80;94.50
12819;DHT22;6474;53.474;9.894;2024-02-23T00:51:03;9.80;94.50
12819;DHT22;6474;53.474;9.894;2024-02-23T00:53:31;9.70;94.70
12819;DHT22;6474;53.474;9.894;2024-02-23T00:56:01;9.60;93.90
12819;DHT22;6474;53.474;9.894;2024-02-23T00:58:28;9.40;93.60
12819;DHT22;6474;53.474;9.894;2024-02-23T01:00:56;9.10;93.40
12819;DHT22;6474;53.474;9.894;2024-02-23T01:03:24;8.80;93.70
12819;DHT22;6474;53.474;9.894;2024-02-23T01:05:52;8.60;93.90
12819;DHT22;6474;53.474;9.894;2024-02-23T01:08:20;8.40;94.00
12819;DHT22;6474;53.474;9.894;2024-02-23T01:10:48;8.20;94.20
12819;DHT22;6474;53.474;9.894;2024-02-23T01:13:17;8.10;94.30
12819;DHT22;6474;53.474;9.894;2024-02-23T01:15:45;8.10;94.50
12819;DHT22;6474;53.474;9.894;2024-02-23T01:18:13;8.00;94.50
12819;DHT22;6474;53.474;9.894;2024-02-23T01:20:41;7.90;94.50
12819;DHT22;6474;53.474;9.894;2024-02-23T01:23:09;7.80;94.50
12819;DHT22;6474;53.474;9.894;2024-02-23T01:25:36;7.80;94.50
12819;DHT22;6474;53.474;9.894;2024-02-23T01:28:04;7.70;94.50
12819;DHT22;6474;53.474;9.894;2024-02-23T01:30:34;7.70;94.50
12819;DHT22;6474;53.474;9.894;2024-02-23T01:33:02;7.60;94.50
12819;DHT22;6474;53.474;9.894;2024-02-23T01:35:30;7.60;94.60
12819;DHT22;6474;53.474;9.894;2024-02-23T01:37:58;7.50;94.60
12819;DHT22;6474;53.474;9.894;2024-02-23T01:40:26;7.50;94.70
12819;DHT22;6474;53.474;9.894;2024-02-23T01:43:03;7.50;94.70
12819;DHT22;6474;53.474;9.894;2024-02-23T01:45:32;7.50;94.80
12819;DHT22;6474;53.474;9.894;2024-02-23T01:48:01;7.50;94.80
12819;DHT22;6474;53.474;9.894;2024-02-23T01:50:30;7.50;94.80
12819;DHT22;6474;53.474;9.894;2024-02-23T01:53:01;7.50;94.80
12819;DHT22;6474;53.474;9.894;2024-02-23T01:55:30;7.50;94.70
12819;DHT22;6474;53.474;9.894;2024-02-23T01:58:02;7.60;94.80
12819;DHT22;6474;53.474;9.894;2024-02-23T02:00:35;7.60;94.80
12819;DHT22;6474;53.474;9.894;2024-02-23T02:03:04;7.60;94.80
12819;DHT22;6474;53.474;9.894;2024-02-23T02:05:38;7.60;94.80
12819;DHT22;6474;53.474;9.894;2024-02-23T02:08:07;7.60;94.80
12819;DHT22;6474;53.474;9.894;2024-02-23T02:10:35;7.60;94.80
12819;DHT22;6474;53.474;9.894;2024-02-23T02:13:03;7.60;94.70
12819;DHT22;6474;53.474;9.894;2024-02-23T02:15:32;7.70;94.70
12819;DHT22;6474;53.474;9.894;2024-02-23T02:17:59;7.60;94.70
12819;DHT22;6474;53.474;9.894;2024-02-23T02:20:32;7.60;94.70
12819;DHT22;6474;53.474;9.894;2024-02-23T02:23:00;7.60;94.70
12819;DHT22;6474;53.474;9.894;2024-02-23T02:25:28;7.60;94.70
12819;DHT22;6474;53.474;9.894;2024-02-23T02:27:56;7.60;94.70
12819;DHT22;6474;53.474;9.894;2024-02-23T02:30:24;7.60;94.70
12819;DHT22;6474;53.474;9.894;2024-02-23T02:32:52;7.60;94.70
12819;DHT22;6474;53.474;9.894;2024-02-23T02:35:20;7.50;94.60
12819;DHT22;6474;53.474;9.894;2024-02-23T02:37:49;7.50;94.60
12819;DHT22;6474;53.474;9.894;2024-02-23T02:40:17;7.50;94.60
12819;DHT22;6474;53.474;9.894;2024-02-23T02:42:45;7.50;94.70
12819;DHT22;6474;53.474;9.894;2024-02-23T02:45:13;7.40;94.70
12819;DHT22;6474;53.474;9.894;2024-02-23T02:47:44;7.40;94.70
12819;DHT22;6474;53.474;9.894;2024-02-23T02:50:12;7.40;94.70
12819;DHT22;6474;53.474;9.894;2024-02-23T02:52:40;7.30;94.70
12819;DHT22;6474;53.474;9.894;2024-02-23T02:55:09;7.30;94.70
12819;DHT22;6474;53.474;9.894;2024-02-23T02:57:37;7.30;94.70
12819;DHT22;6474;53.474;9.894;2024-02-23T03:00:09;7.30;94.70
12819;DHT22;6474;53.474;9.894;2024-02-23T03:02:37;7.30;94.70
12819;DHT22;6474;53.474;9.894;2024-02-23T03:05:05;7.20;94.60
12819;DHT22;6474;53.474;9.894;2024-02-23T03:07:34;7.20;94.60
12819;DHT22;6474;53.474;9.894;2024-02-23T03:10:02;7.20;94.60
12819;DHT22;6474;53.474;9.894;2024-02-23T03:12:31;7.20;94.60
12819;DHT22;6474;53.474;9.894;2024-02-23T03:14:59;7.10;94.50
12819;DHT22;6474;53.474;9.894;2024-02-23T03:17:28;7.10;94.60
12819;DHT22;6474;53.474;9.894;2024-02-23T03:19:57;7.10;94.60
12819;DHT22;6474;53.474;9.894;2024-02-23T03:22:25;7.10;94.60
12819;DHT22;6474;53.474;9.894;2024-02-23T03:24:53;7.00;94.60
12819;DHT22;6474;53.474;9.894;2024-02-23T03:27:27;7.10;94.70
12819;DHT22;6474;53.474;9.894;2024-02-23T03:29:57;7.00;94.60
12819;DHT22;6474;53.474;9.894;2024-02-23T03:32:24;7.00;94.60
12819;DHT22;6474;53.474;9.894;2024-02-23T03:34:52;7.00;94.60
12819;DHT22;6474;53.474;9.894;2024-02-23T03:37:20;7.00;94.60
12819;DHT22;6474;53.474;9.894;2024-02-23T03:39:48;7.00;94.70
12819;DHT22;6474;53.474;9.894;2024-02-23T03:42:16;7.00;94.60
12819;DHT22;6474;53.474;9.894;2024-02-23T03:44:44;7.00;94.60
12819;DHT22;6474;53.474;9.894;2024-02-23T03:47:13;6.90;94.50
12819;DHT22;6474;53.474;9.894;2024-02-23T03:49:41;6.90;94.50
12819;DHT22;6474;53.474;9.894;2024-02-23T03:52:09;6.90;94.40
12819;DHT22;6474;53.474;9.894;2024-02-23T03:54:36;6.80;94.40
12819;DHT22;6474;53.474;9.894;2024-02-23T03:57:04;6.70;94.40
12819;DHT22;6474;53.474;9.894;2024-02-23T03:59:35;6.70;94.40
12819;DHT22;6474;53.474;9.894;2024-02-23T04:02:03;6.60;94.50
12819;DHT22;6474;53.474;9.894;2024-02-23T04:04:33;6.60;94.50
12819;DHT22;6474;53.474;9.894;2024-02-23T04:07:01;6.60;94.50
12819;DHT22;6474;53.474;9.894;2024-02-23T04:09:29;6.60;94.50
12819;DHT22;6474;53.474;9.894;2024-02-23T04:11:57;6.60;94.50
12819;DHT22;6474;53.474;9.894;2024-02-23T04:14:25;6.60;94.50
12819;DHT22;6474;53.474;9.894;2024-02-23T04:16:53;6.60;94.50
12819;DHT22;6474;53.474;9.894;2024-02-23T04:19:21;6.60;94.50
12819;DHT22;6474;53.474;9.894;2024-02-23T04:21:50;6.60;94.50
12819;DHT22;6474;53.474;9.894;2024-02-23T04:24:18;6.60;94.50
12819;DHT22;6474;53.474;9.894;2024-02-23T04:26:47;6.60;94.50
12819;DHT22;6474;53.474;9.894;2024-02-23T04:29:15;6.60;94.50
12819;DHT22;6474;53.474;9.894;2024-02-23T04:31:43;6.60;94.50
12819;DHT22;6474;53.474;9.894;2024-02-23T04:34:11;6.60;94.50
12819;DHT22;6474;53.474;9.894;2024-02-23T04:36:39;6.60;94.60
12819;DHT22;6474;53.474;9.894;2024-02-23T04:39:08;6.70;94.50
12819;DHT22;6474;53.474;9.894;2024-02-23T04:41:36;6.70;94.50
12819;DHT22;6474;53.474;9.894;2024-02-23T04:44:04;6.70;94.50
12819;DHT22;6474;53.474;9.894;2024-02-23T04:46:32;6.70;94.50
12819;DHT22;6474;53.474;9.894;2024-02-23T04:49:01;6.70;94.50
12819;DHT22;6474;53.474;9.894;2024-02-23T04:51:29;6.70;94.50
12819;DHT22;6474;53.474;9.894;2024-02-23T04:53:57;6.70;94.50
12819;DHT22;6474;53.474;9.894;2024-02-23T04:56:26;6.70;94.40
12819;DHT22;6474;53.474;9.894;2024-02-23T04:58:54;6.60;94.30
12819;DHT22;6474;53.474;9.894;2024-02-23T05:01:22;6.60;94.20
12819;DHT22;6474;53.474;9.894;2024-02-23T05:03:50;6.50;94.10
12819;DHT22;6474;53.474;9.894;2024-02-23T05:06:18;6.50;94.20
12819;DHT22;6474;53.474;9.894;2024-02-23T05:08:46;6.40;94.20
12819;DHT22;6474;53.474;9.894;2024-02-23T05:11:14;6.40;94.20
12819;DHT22;6474;53.474;9.894;2024-02-23T05:13:44;6.40;94.30
12819;DHT22;6474;53.474;9.894;2024-02-23T05:16:13;6.40;94.30
12819;DHT22;6474;53.474;9.894;2024-02-23T05:18:41;6.30;94.30
12819;DHT22;6474;53.474;9.894;2024-02-23T05:21:10;6.30;94.20
12819;DHT22;6474;53.474;9.894;2024-02-23T05:23:37;6.30;94.30
12819;DHT22;6474;53.474;9.894;2024-02-23T05:26:05;6.30;94.30
12819;DHT22;6474;53.474;9.894;2024-02-23T05:28:34;6.30;94.30
12819;DHT22;6474;53.474;9.894;2024-02-23T05:31:03;6.20;94.10
12819;DHT22;6474;53.474;9.894;2024-02-23T05:33:31;6.20;94.20
12819;DHT22;6474;53.474;9.894;2024-02-23T05:35:59;6.20;94.20
12819;DHT22;6474;53.474;9.894;2024-02-23T05:38:27;6.20;94.20
12819;DHT22;6474;53.474;9.894;2024-02-23T05:40:55;6.10;94.20
12819;DHT22;6474;53.474;9.894;2024-02-23T05:43:23;6.20;94.30
12819;DHT22;6474;53.474;9.894;2024-02-23T05:45:51;6.20;94.30
12819;DHT22;6474;53.474;9.894;2024-02-23T05:48:22;6.20;94.10
12819;DHT22;6474;53.474;9.894;2024-02-23T05:50:50;6.20;94.10
12819;DHT22;6474;53.474;9.894;2024-02-23T05:53:17;6.10;94.30
12819;DHT22;6474;53.474;9.894;2024-02-23T05:55:46;6.10;94.00
12819;DHT22;6474;53.474;9.894;2024-02-23T05:58:14;6.10;94.00
12819;DHT22;6474;53.474;9.894;2024-02-23T06:00:43;6.10;94.00
12819;DHT22;6474;53.474;9.894;2024-02-23T06:03:11;6.10;94.00
12819;DHT22;6474;53.474;9.894;2024-02-23T06:05:40;6.10;94.00
12819;DHT22;6474;53.474;9.894;2024-02-23T06:08:09;6.00;94.00
12819;DHT22;6474;53.474;9.894;2024-02-23T06:10:37;6.00;94.00
12819;DHT22;6474;53.474;9.894;2024-02-23T06:13:05;6.00;94.00
12819;DHT22;6474;53.474;9.894;2024-02-23T06:15:33;6.00;93.90
12819;DHT22;6474;53.474;9.894;2024-02-23T06:18:01;6.00;94.00
12819;DHT22;6474;53.474;9.894;2024-02-23T06:20:29;6.00;94.00
12819;DHT22;6474;53.474;9.894;2024-02-23T06:22:58;5.90;93.90
12819;DHT22;6474;53.474;9.894;2024-02-23T06:25:26;6.00;93.90
12819;DHT22;6474;53.474;9.894;2024-02-23T06:27:54;5.90;93.90
12819;DHT22;6474;53.474;9.894;2024-02-23T06:30:22;5.90;93.90
12819;DHT22;6474;53.474;9.894;2024-02-23T06:32:50;5.80;93.80
12819;DHT22;6474;53.474;9.894;2024-02-23T06:35:19;5.80;93.90
12819;DHT22;6474;53.474;9.894;2024-02-23T06:37:48;5.80;93.90
12819;DHT22;6474;53.474;9.894;2024-02-23T06:40:17;5.80;93.90
12819;DHT22;6474;53.474;9.894;2024-02-23T06:42:45;5.80;93.90
12819;DHT22;6474;53.474;9.894;2024-02-23T06:45:13;5.80;93.90
12819;DHT22;6474;53.474;9.894;2024-02-23T06:47:41;5.70;93.80
12819;DHT22;6474;53.474;9.894;2024-02-23T06:50:12;5.70;93.80
12819;DHT22;6474;53.474;9.894;2024-02-23T06:52:40;5.70;93.90
12819;DHT22;6474;53.474;9.894;2024-02-23T06:55:08;5.70;93.90
12819;DHT22;6474;53.474;9.894;2024-02-23T06:57:39;5.70;93.90
12819;DHT22;6474;53.474;9.894;2024-02-23T07:00:08;5.70;93.90
12819;DHT22;6474;53.474;9.894;2024-02-23T07:02:36;5.70;93.90
12819;DHT22;6474;53.474;9.894;2024-02-23T07:05:05;5.70;93.90
12819;DHT22;6474;53.474;9.894;2024-02-23T07:07:34;5.70;93.90
12819;DHT22;6474;53.474;9.894;2024-02-23T07:10:02;5.70;93.90
12819;DHT22;6474;53.474;9.894;2024-02-23T07:12:30;5.70;94.00
12819;DHT22;6474;53.474;9.894;2024-02-23T07:14:59;5.80;94.10
12819;DHT22;6474;53.474;9.894;2024-02-23T07:17:28;5.90;94.10
12819;DHT22;6474;53.474;9.894;2024-02-23T07:19:56;5.90;94.10
12819;DHT22;6474;53.474;9.894;2024-02-23T07:22:32;6.00;94.10
12819;DHT22;6474;53.474;9.894;2024-02-23T07:25:00;6.10;94.10
12819;DHT22;6474;53.474;9.894;2024-02-23T07:27:30;6.20;94.00
12819;DHT22;6474;53.474;9.894;2024-02-23T07:29:59;6.20;93.90
12819;DHT22;6474;53.474;9.894;2024-02-23T07:32:27;6.20;93.90
12819;DHT22;6474;53.474;9.894;2024-02-23T07:34:57;6.30;94.00
12819;DHT22;6474;53.474;9.894;2024-02-23T07:37:26;6.30;94.00
12819;DHT22;6474;53.474;9.894;2024-02-23T07:39:53;6.40;94.00
12819;DHT22;6474;53.474;9.894;2024-02-23T07:42:21;6.50;94.10
12819;DHT22;6474;53.474;9.894;2024-02-23T07:44:49;6.50;94.00
12819;DHT22;6474;53.474;9.894;2024-02-23T07:47:18;6.60;94.00
12819;DHT22;6474;53.474;9.894;2024-02-23T07:49:46;6.60;93.90
12819;DHT22;6474;53.474;9.894;2024-02-23T07:52:14;6.70;94.00
12819;DHT22;6474;53.474;9.894;2024-02-23T07:54:42;6.70;93.90
12819;DHT22;6474;53.474;9.894;2024-02-23T07:57:10;6.70;93.80
12819;DHT22;6474;53.474;9.894;2024-02-23T07:59:40;6.70;93.70
12819;DHT22;6474;53.474;9.894;2024-02-23T08:02:08;6.70;93.70
12819;DHT22;6474;53.474;9.894;2024-02-23T08:04:37;6.70;93.70
12819;DHT22;6474;53.474;9.894;2024-02-23T08:07:05;6.70;93.70
12819;DHT22;6474;53.474;9.894;2024-02-23T08:09:33;6.70;93.70
12819;DHT22;6474;53.474;9.894;2024-02-23T08:12:01;6.70;93.80
12819;DHT22;6474;53.474;9.894;2024-02-23T08:14:29;6.70;94.10
12819;DHT22;6474;53.474;9.894;2024-02-23T08:16:57;6.80;93.80
12819;DHT22;6474;53.474;9.894;2024-02-23T08:19:25;6.80;93.70
12819;DHT22;6474;53.474;9.894;2024-02-23T08:21:54;6.80;93.70
12819;DHT22;6474;53.474;9.894;2024-02-23T08:24:24;6.80;93.70
12819;DHT22;6474;53.474;9.894;2024-02-23T08:26:53;6.90;93.70
12819;DHT22;6474;53.474;9.894;2024-02-23T08:29:21;6.90;93.70
12819;DHT22;6474;53.474;9.894;2024-02-23T08:31:50;6.90;93.70
12819;DHT22;6474;53.474;9.894;2024-02-23T08:34:18;7.00;93.70
12819;DHT22;6474;53.474;9.894;2024-02-23T08:36:46;7.00;93.70
12819;DHT22;6474;53.474;9.894;2024-02-23T08:39:15;7.00;93.70
12819;DHT22;6474;53.474;9.894;2024-02-23T08:41:43;7.10;93.70
12819;DHT22;6474;53.474;9.894;2024-02-23T08:44:11;7.10;94.00
12819;DHT22;6474;53.474;9.894;2024-02-23T08:46:39;7.10;93.70
12819;DHT22;6474;53.474;9.894;2024-02-23T08:49:06;7.10;93.70
12819;DHT22;6474;53.474;9.894;2024-02-23T08:51:34;7.20;93.90
12819;DHT22;6474;53.474;9.894;2024-02-23T08:54:03;7.30;93.90
12819;DHT22;6474;53.474;9.894;2024-02-23T08:56:37;7.40;93.90
12819;DHT22;6474;53.474;9.894;2024-02-23T08:59:06;7.40;93.80
12819;DHT22;6474;53.474;9.894;2024-02-23T09:01:34;7.40;93.70
12819;DHT22;6474;53.474;9.894;2024-02-23T09:04:01;7.50;93.70
12819;DHT22;6474;53.474;9.894;2024-02-23T09:06:29;7.50;93.80
12819;DHT22;6474;53.474;9.894;2024-02-23T09:09:01;7.60;93.80
12819;DHT22;6474;53.474;9.894;2024-02-23T09:11:29;7.60;93.80
12819;DHT22;6474;53.474;9.894;2024-02-23T09:13:58;7.70;93.90
12819;DHT22;6474;53.474;9.894;2024-02-23T09:16:26;7.70;93.90
12819;DHT22;6474;53.474;9.894;2024-02-23T09:18:54;7.80;93.90
12819;DHT22;6474;53.474;9.894;2024-02-23T09:21:22;7.90;94.00
12819;DHT22;6474;53.474;9.894;2024-02-23T09:23:50;7.90;93.90
12819;DHT22;6474;53.474;9.894;2024-02-23T09:26:18;8.00;93.90
12819;DHT22;6474;53.474;9.894;2024-02-23T09:28:46;8.00;93.90
12819;DHT22;6474;53.474;9.894;2024-02-23T09:31:15;8.00;93.90
12819;DHT22;6474;53.474;9.894;2024-02-23T09:33:43;8.10;93.90
12819;DHT22;6474;53.474;9.894;2024-02-23T09:36:12;8.10;93.90
12819;DHT22;6474;53.474;9.894;2024-02-23T09:38:40;8.10;93.90
12819;DHT22;6474;53.474;9.894;2024-02-23T09:41:15;8.20;93.90
12819;DHT22;6474;53.474;9.894;2024-02-23T09:43:46;8.20;94.00
12819;DHT22;6474;53.474;9.894;2024-02-23T09:46:15;8.30;94.00
12819;DHT22;6474;53.474;9.894;2024-02-23T09:48:44;8.30;93.90
12819;DHT22;6474;53.474;9.894;2024-02-23T09:51:12;8.40;93.80
12819;DHT22;6474;53.474;9.894;2024-02-23T09:53:41;8.40;93.80
12819;DHT22;6474;53.474;9.894;2024-02-23T09:56:11;8.40;93.80
12819;DHT22;6474;53.474;9.894;2024-02-23T09:58:44;8.40;93.80
12819;DHT22;6474;53.474;9.894;2024-02-23T10:01:16;8.40;93.80
12819;DHT22;6474;53.474;9.894;2024-02-23T10:03:49;8.40;93.90
12819;DHT22;6474;53.474;9.894;2024-02-23T10:06:17;8.50;93.90
12819;DHT22;6474;53.474;9.894;2024-02-23T10:08:45;8.50;93.90
12819;DHT22;6474;53.474;9.894;2024-02-23T10:11:13;8.50;93.90
12819;DHT22;6474;53.474;9.894;2024-02-23T10:13:42;8.60;93.90
12819;DHT22;6474;53.474;9.894;2024-02-23T10:16:11;8.60;93.90
12819;DHT22;6474;53.474;9.894;2024-02-23T10:18:43;8.60;93.90
12819;DHT22;6474;53.474;9.894;2024-02-23T10:21:11;8.60;93.80
12819;DHT22;6474;53.474;9.894;2024-02-23T10:23:38;8.60;93.90
12819;DHT22;6474;53.474;9.894;2024-02-23T10:26:07;8.70;93.90
12819;DHT22;6474;53.474;9.894;2024-02-23T10:28:36;8.80;94.00
12819;DHT22;6474;53.474;9.894;2024-02-23T10:31:06;8.80;94.00
12819;DHT22;6474;53.474;9.894;2024-02-23T10:33:39;8.90;94.00
12819;DHT22;6474;53.474;9.894;2024-02-23T10:36:09;9.00;94.00
12819;DHT22;6474;53.474;9.894;2024-02-23T10:38:40;9.00;93.90
12819;DHT22;6474;53.474;9.894;2024-02-23T10:41:12;9.10;93.90
12819;DHT22;6474;53.474;9.894;2024-02-23T10:43:43;9.10;93.80
12819;DHT22;6474;53.474;9.894;2024-02-23T10:46:12;9.10;93.90
12819;DHT22;6474;53.474;9.894;2024-02-23T10:48:41;9.10;93.80
12819;DHT22;6474;53.474;9.894;2024-02-23T10:51:13;9.10;93.90
12819;DHT22;6474;53.474;9.894;2024-02-23T10:53:46;9.10;93.90
12819;DHT22;6474;53.474;9.894;2024-02-23T10:56:16;9.10;93.90
12819;DHT22;6474;53.474;9.894;2024-02-23T10:58:44;9.20;93.90
12819;DHT22;6474;53.474;9.894;2024-02-23T11:01:13;9.20;93.90
12819;DHT22;6474;53.474;9.894;2024-02-23T11:03:42;9.20;93.80
12819;DHT22;6474;53.474;9.894;2024-02-23T11:06:15;9.10;93.70
12819;DHT22;6474;53.474;9.894;2024-02-23T11:08:48;9.10;93.70
12819;DHT22;6474;53.474;9.894;2024-02-23T11:11:17;9.10;93.80
12819;DHT22;6474;53.474;9.894;2024-02-23T11:13:47;9.10;93.80
12819;DHT22;6474;53.474;9.894;2024-02-23T11:16:22;9.10;93.80
12819;DHT22;6474;53.474;9.894;2024-02-23T11:19:03;9.00;93.80
12819;DHT22;6474;53.474;9.894;2024-02-23T11:21:36;9.00;93.80
12819;DHT22;6474;53.474;9.894;2024-02-23T11:24:05;9.00;93.80
12819;DHT22;6474;53.474;9.894;2024-02-23T11:26:37;9.00;93.80
12819;DHT22;6474;53.474;9.894;2024-02-23T11:29:10;9.00;93.80
12819;DHT22;6474;53.474;9.894;2024-02-23T11:31:44;9.10;93.90
12819;DHT22;6474;53.474;9.894;2024-02-23T11:34:13;9.10;93.80
12819;DHT22;6474;53.474;9.894;2024-02-23T11:36:51;9.20;93.80
12819;DHT22;6474;53.474;9.894;2024-02-23T11:39:20;9.30;93.90
12819;DHT22;6474;53.474;9.894;2024-02-23T11:41:48;9.40;93.90
12819;DHT22;6474;53.474;9.894;2024-02-23T11:44:17;9.50;93.80
12819;DHT22;6474;53.474;9.894;2024-02-23T11:46:46;9.50;93.60
12819;DHT22;6474;53.474;9.894;2024-02-23T11:49:14;9.50;93.60
12819;DHT22;6474;53.474;9.894;2024-02-23T11:51:42;9.40;93.50
12819;DHT22;6474;53.474;9.894;2024-02-23T11:54:12;9.40;93.50
12819;DHT22;6474;53.474;9.894;2024-02-23T11:56:41;9.40;93.50
12819;DHT22;6474;53.474;9.894;2024-02-23T11:59:10;9.50;93.60
12819;DHT22;6474;53.474;9.894;2024-02-23T12:01:38;9.40;93.70
12819;DHT22;6474;53.474;9.894;2024-02-23T12:04:06;9.50;93.60
12819;DHT22;6474;53.474;9.894;2024-02-23T12:06:34;9.50;93.60
12819;DHT22;6474;53.474;9.894;2024-02-23T12:09:01;9.60;93.60
12819;DHT22;6474;53.474;9.894;2024-02-23T12:11:32;9.60;93.60
12819;DHT22;6474;53.474;9.894;2024-02-23T12:14:00;9.70;93.70
12819;DHT22;6474;53.474;9.894;2024-02-23T12:16:29;9.70;93.60
12819;DHT22;6474;53.474;9.894;2024-02-23T12:18:57;9.60;93.60
12819;DHT22;6474;53.474;9.894;2024-02-23T12:21:24;9.70;93.60
12819;DHT22;6474;53.474;9.894;2024-02-23T12:23:53;9.60;93.60
12819;DHT22;6474;53.474;9.894;2024-02-23T12:26:20;9.60;93.60
12819;DHT22;6474;53.474;9.894;2024-02-23T12:28:50;9.60;93.50
12819;DHT22;6474;53.474;9.894;2024-02-23T12:31:24;9.60;93.60
12819;DHT22;6474;53.474;9.894;2024-02-23T12:33:52;9.50;93.60
12819;DHT22;6474;53.474;9.894;2024-02-23T12:36:20;9.50;93.60
12819;DHT22;6474;53.474;9.894;2024-02-23T12:38:50;9.60;93.60
12819;DHT22;6474;53.474;9.894;2024-02-23T12:41:17;9.60;93.60
12819;DHT22;6474;53.474;9.894;2024-02-23T12:43:45;9.70;93.70
12819;DHT22;6474;53.474;9.894;2024-02-23T12:46:15;9.70;93.60
12819;DHT22;6474;53.474;9.894;2024-02-23T12:48:43;9.80;93.70
12819;DHT22;6474;53.474;9.894;2024-02-23T12:51:11;9.90;93.60
12819;DHT22;6474;53.474;9.894;2024-02-23T12:53:40;9.90;93.50
12819;DHT22;6474;53.474;9.894;2024-02-23T12:56:10;9.90;93.40
12819;DHT22;6474;53.474;9.894;2024-02-23T12:58:39;9.90;93.40
12819;DHT22;6474;53.474;9.894;2024-02-23T13:01:07;9.80;93.40
12819;DHT22;6474;53.474;9.894;2024-02-23T13:03:38;9.80;93.50
12819;DHT22;6474;53.474;9.894;2024-02-23T13:06:07;9.90;93.50
12819;DHT22;6474;53.474;9.894;2024-02-23T13:08:35;9.90;93.50
12819;DHT22;6474;53.474;9.894;2024-02-23T13:11:05;9.90;93.50
12819;DHT22;6474;53.474;9.894;2024-02-23T13:13:34;9.90;93.50
12819;DHT22;6474;53.474;9.894;2024-02-23T13:16:02;10.00;93.00
12819;DHT22;6474;53.474;9.894;2024-02-23T13:18:29;9.90;93.40
12819;DHT22;6474;53.474;9.894;2024-02-23T13:20:59;9.90;93.70
12819;DHT22;6474;53.474;9.894;2024-02-23T13:23:26;9.80;93.30
12819;DHT22;6474;53.474;9.894;2024-02-23T13:25:54;9.80;93.30
12819;DHT22;6474;53.474;9.894;2024-02-23T13:28:22;9.70;93.30
12819;DHT22;6474;53.474;9.894;2024-02-23T13:30:50;9.70;93.30
12819;DHT22;6474;53.474;9.894;2024-02-23T13:33:18;9.60;93.20
12819;DHT22;6474;53.474;9.894;2024-02-23T13:35:47;9.60;93.20
12819;DHT22;6474;53.474;9.894;2024-02-23T13:38:17;9.50;93.20
12819;DHT22;6474;53.474;9.894;2024-02-23T13:40:45;9.40;93.10
12819;DHT22;6474;53.474;9.894;2024-02-23T13:43:13;9.40;93.40
12819;DHT22;6474;53.474;9.894;2024-02-23T13:45:48;9.30;93.00
12819;DHT22;6474;53.474;9.894;2024-02-23T13:48:17;9.30;93.00
12819;DHT22;6474;53.474;9.894;2024-02-23T13:50:46;9.20;93.10
12819;DHT22;6474;53.474;9.894;2024-02-23T13:53:15;9.20;93.10
12819;DHT22;6474;53.474;9.894;2024-02-23T13:55:43;9.20;93.10
12819;DHT22;6474;53.474;9.894;2024-02-23T13:58:11;9.20;93.10
12819;DHT22;6474;53.474;9.894;2024-02-23T14:00:39;9.20;93.10
12819;DHT22;6474;53.474;9.894;2024-02-23T14:03:07;9.30;93.10
12819;DHT22;6474;53.474;9.894;2024-02-23T14:05:36;9.30;93.10
12819;DHT22;6474;53.474;9.894;2024-02-23T14:08:04;9.30;93.20
12819;DHT22;6474;53.474;9.894;2024-02-23T14:10:34;9.40;93.20
12819;DHT22;6474;53.474;9.894;2024-02-23T14:13:04;9.40;93.20
12819;DHT22;6474;53.474;9.894;2024-02-23T14:15:32;9.40;93.10
12819;DHT22;6474;53.474;9.894;2024-02-23T14:18:00;9.50;93.20
12819;DHT22;6474;53.474;9.894;2024-02-23T14:20:28;9.60;93.30
12819;DHT22;6474;53.474;9.894;2024-02-23T14:22:56;9.70;93.10
12819;DHT22;6474;53.474;9.894;2024-02-23T14:25:24;9.80;93.00
12819;DHT22;6474;53.474;9.894;2024-02-23T14:27:52;9.80;92.90
12819;DHT22;6474;53.474;9.894;2024-02-23T14:30:23;9.70;92.70
12819;DHT22;6474;53.474;9.894;2024-02-23T14:32:51;9.70;92.70
12819;DHT22;6474;53.474;9.894;2024-02-23T14:35:19;9.70;92.60
12819;DHT22;6474;53.474;9.894;2024-02-23T14:37:47;9.60;92.50
12819;DHT22;6474;53.474;9.894;2024-02-23T14:40:15;9.50;92.50
12819;DHT22;6474;53.474;9.894;2024-02-23T14:42:43;9.50;92.60
12819;DHT22;6474;53.474;9.894;2024-02-23T14:45:11;9.40;92.70
12819;DHT22;6474;53.474;9.894;2024-02-23T14:47:41;9.40;92.80
12819;DHT22;6474;53.474;9.894;2024-02-23T14:50:12;9.40;92.90
12819;DHT22;6474;53.474;9.894;2024-02-23T14:52:40;9.40;92.90
12819;DHT22;6474;53.474;9.894;2024-02-23T14:55:10;9.40;92.90
12819;DHT22;6474;53.474;9.894;2024-02-23T14:57:38;9.40;92.90
12819;DHT22;6474;53.474;9.894;2024-02-23T15:00:07;9.40;92.90
12819;DHT22;6474;53.474;9.894;2024-02-23T15:02:36;9.40;92.90
12819;DHT22;6474;53.474;9.894;2024-02-23T15:05:06;9.40;92.80
12819;DHT22;6474;53.474;9.894;2024-02-23T15:07:34;9.40;92.80
12819;DHT22;6474;53.474;9.894;2024-02-23T15:10:04;9.40;92.80
12819;DHT22;6474;53.474;9.894;2024-02-23T15:12:35;9.40;92.70
12819;DHT22;6474;53.474;9.894;2024-02-23T15:15:04;9.30;92.70
12819;DHT22;6474;53.474;9.894;2024-02-23T15:17:33;9.30;92.70
12819;DHT22;6474;53.474;9.894;2024-02-23T15:20:01;9.30;92.70
12819;DHT22;6474;53.474;9.894;2024-02-23T15:22:32;9.30;92.80
12819;DHT22;6474;53.474;9.894;2024-02-23T15:24:59;9.40;93.10
12819;DHT22;6474;53.474;9.894;2024-02-23T15:27:27;9.40;92.70
12819;DHT22;6474;53.474;9.894;2024-02-23T15:29:55;9.40;92.70
12819;DHT22;6474;53.474;9.894;2024-02-23T15:32:23;9.40;92.70
12819;DHT22;6474;53.474;9.894;2024-02-23T15:34:52;9.40;92.60
12819;DHT22;6474;53.474;9.894;2024-02-23T15:37:19;9.40;92.60
12819;DHT22;6474;53.474;9.894;2024-02-23T15:39:48;9.30;92.50
12819;DHT22;6474;53.474;9.894;2024-02-23T15:42:16;9.30;92.50
12819;DHT22;6474;53.474;9.894;2024-02-23T15:44:46;9.30;92.50
12819;DHT22;6474;53.474;9.894;2024-02-23T15:47:14;9.30;92.50
12819;DHT22;6474;53.474;9.894;2024-02-23T15:49:43;9.20;92.50
12819;DHT22;6474;53.474;9.894;2024-02-23T15:52:31;9.20;92.50
12819;DHT22;6474;53.474;9.894;2024-02-23T15:55:00;9.10;92.50
12819;DHT22;6474;53.474;9.894;2024-02-23T15:57:28;9.10;92.50
12819;DHT22;6474;53.474;9.894;2024-02-23T15:59:56;9.10;92.50
12819;DHT22;6474;53.474;9.894;2024-02-23T16:02:29;9.10;92.50
12819;DHT22;6474;53.474;9.894;2024-02-23T16:04:57;9.00;92.40
12819;DHT22;6474;53.474;9.894;2024-02-23T16:07:26;9.00;92.40
12819;DHT22;6474;53.474;9.894;2024-02-23T16:09:54;9.00;92.40
12819;DHT22;6474;53.474;9.894;2024-02-23T16:12:23;9.00;92.50